Time;durP1;ratioP1;P1;durP2;ratioP2;P2;SDS_P1;SDS_P2;PMS_P1;PMS_P2;Temp;Humidity;BMP_temperature;BMP_pressure;BME280_temperature;BME280_humidity;BME280_pressure;Samples;Min_cycle;Max_cycle;Signal;HPM_P1;HPM_P2
2022/11/10 00:01:59;;;;;;;;;10.50;10.00;;;;;;;;5049420;28;51200;-49
2022/11/10 00:04:44;;;;;;;;;9.25;8.75;;;;;;;;5049978;28;51401;-49
2022/11/10 00:07:28;;;;;;;;;19.75;9.75;;;;;;;;5050594;28;51464;-52
2022/11/10 00:10:14;;;;;;;;;12.50;9.25;;;;;;;;5046733;28;51046;-52
2022/11/10 00:12:59;;;;;;;;;12.50;10.00;;;;;;;;5050109;28;52176;-48
2022/11/10 00:18:46;;;;;;;;;15.00;12.25;;;;;;;;5051699;28;51172;-47
2022/11/10 00:21:31;;;;;;;;;14.00;12.25;;;;;;;;5057570;28;51527;-53
2022/11/10 00:24:15;;;;;;;;;12.50;10.00;;;;;;;;5056112;28;51065;-48
2022/11/10 00:27:00;;;;;;;;;14.00;10.75;;;;;;;;5041061;28;51166;-54
2022/11/10 00:29:44;;;;;;;;;16.50;10.75;;;;;;;;5052506;28;50999;-46
2022/11/10 00:32:28;;;;;;;;;15.00;10.50;;;;;;;;5049349;28;51145;-53
2022/11/10 00:35:13;;;;;;;;;23.00;13.00;;;;;;;;5044763;28;50947;-50
2022/11/10 00:37:57;;;;;;;;;13.50;10.00;;;;;;;;5045195;28;51720;-52
2022/11/10 00:40:42;;;;;;;;;14.50;11.00;;;;;;;;5053275;28;52330;-48
2022/11/10 00:43:27;;;;;;;;;16.00;11.25;;;;;;;;5050613;28;51159;-49
2022/11/10 00:46:11;;;;;;;;;12.25;8.75;;;;;;;;5055769;28;51636;-46
2022/11/10 00:48:55;;;;;;;;;12.75;9.50;;;;;;;;5045664;28;51216;-53
2022/11/10 00:51:40;;;;;;;;;13.75;10.50;;;;;;;;5054880;28;51159;-51
2022/11/10 00:54:24;;;;;;;;;13.50;11.75;;;;;;;;5051063;28;51212;-53
2022/11/10 00:57:09;;;;;;;;;14.00;10.75;;;;;;;;5052712;28;52441;-50
2022/11/10 00:59:53;;;;;;;;;10.75;9.75;;;;;;;;5038574;28;51113;-49
2022/11/10 01:02:37;;;;;;;;;12.25;9.25;;;;;;;;5044313;28;51200;-52
2022/11/10 01:05:22;;;;;;;;;13.50;9.00;;;;;;;;5046356;28;51100;-50
2022/11/10 01:08:07;;;;;;;;;13.25;10.25;;;;;;;;5052176;28;51058;-47
2022/11/10 01:10:51;;;;;;;;;11.25;9.25;;;;;;;;5038291;28;51163;-50
2022/11/10 01:13:35;;;;;;;;;10.75;9.50;;;;;;;;5039972;28;51138;-50
2022/11/10 01:16:29;;;;;;;;;13.25;9.25;;;;;;;;5042500;28;51209;-49
2022/11/10 01:19:13;;;;;;;;;14.00;10.50;;;;;;;;5039910;28;51464;-51
2022/11/10 01:21:59;;;;;;;;;12.75;11.00;;;;;;;;5046787;28;51432;-53
2022/11/10 01:24:44;;;;;;;;;13.50;11.25;;;;;;;;5051278;28;51052;-49
2022/11/10 01:27:28;;;;;;;;;11.75;11.00;;;;;;;;5044988;28;51148;-48
2022/11/10 01:30:13;;;;;;;;;9.00;7.25;;;;;;;;5045325;28;51106;-50
2022/11/10 01:32:57;;;;;;;;;13.50;10.75;;;;;;;;5046414;28;51158;-47
2022/11/10 01:35:41;;;;;;;;;16.00;11.00;;;;;;;;5041211;28;51120;-47
2022/11/10 01:38:27;;;;;;;;;12.25;11.50;;;;;;;;5050133;28;51091;-55
2022/11/10 01:41:12;;;;;;;;;12.00;10.75;;;;;;;;5046349;28;51600;-51
2022/11/10 01:44:17;;;;;;;;;12.50;9.00;;;;;;;;5057219;28;51076;-52
2022/11/10 01:47:01;;;;;;;;;16.00;11.00;;;;;;;;5052496;28;51574;-53
2022/11/10 01:49:46;;;;;;;;;11.25;10.50;;;;;;;;5046426;28;51145;-48
2022/11/10 01:52:32;;;;;;;;;16.50;11.25;;;;;;;;5058397;28;51089;-55
2022/11/10 01:55:16;;;;;;;;;12.50;10.50;;;;;;;;5050952;28;51171;-53
2022/11/10 01:58:00;;;;;;;;;9.50;9.50;;;;;;;;5046245;28;51257;-53
2022/11/10 02:00:45;;;;;;;;;10.50;10.25;;;;;;;;5042394;28;51038;-51
2022/11/10 02:03:32;;;;;;;;;18.50;13.00;;;;;;;;5049120;28;51575;-53
2022/11/10 02:06:18;;;;;;;;;15.00;11.25;;;;;;;;5057908;28;51214;-51
2022/11/10 02:09:02;;;;;;;;;15.50;12.50;;;;;;;;5042902;28;51162;-53
2022/11/10 02:11:50;;;;;;;;;13.00;10.00;;;;;;;;5059091;28;51523;-50
2022/11/10 02:14:35;;;;;;;;;16.00;11.50;;;;;;;;5052634;28;51195;-50
2022/11/10 02:17:19;;;;;;;;;14.25;12.00;;;;;;;;5055968;28;51409;-48
2022/11/10 02:20:06;;;;;;;;;14.25;11.00;;;;;;;;5054820;28;51152;-47
2022/11/10 02:22:51;;;;;;;;;12.00;11.25;;;;;;;;5058613;28;51301;-51
2022/11/10 02:25:35;;;;;;;;;14.25;11.75;;;;;;;;5051260;28;51329;-54
2022/11/10 02:28:19;;;;;;;;;15.75;12.75;;;;;;;;5047102;28;51417;-48
2022/11/10 02:31:05;;;;;;;;;15.25;13.00;;;;;;;;5042081;28;51093;-52
2022/11/10 02:33:49;;;;;;;;;22.25;14.75;;;;;;;;5049338;28;51148;-50
2022/11/10 02:36:34;;;;;;;;;15.75;14.75;;;;;;;;5054953;28;51299;-49
2022/11/10 02:39:18;;;;;;;;;19.25;12.00;;;;;;;;5058615;28;51470;-51
2022/11/10 02:42:03;;;;;;;;;19.50;15.75;;;;;;;;5061601;28;51413;-53
2022/11/10 02:44:48;;;;;;;;;17.00;15.00;;;;;;;;5052897;28;51173;-51
2022/11/10 02:47:32;;;;;;;;;18.50;16.75;;;;;;;;5041567;28;51120;-52
2022/11/10 02:50:16;;;;;;;;;17.00;16.00;;;;;;;;5057844;28;51218;-48
2022/11/10 02:53:01;;;;;;;;;20.00;15.25;;;;;;;;5047248;28;51121;-51
2022/11/10 02:55:45;;;;;;;;;18.25;16.50;;;;;;;;5052216;28;51159;-49
2022/11/10 02:58:30;;;;;;;;;20.50;16.75;;;;;;;;5050808;28;51148;-52
2022/11/10 03:01:14;;;;;;;;;19.50;15.50;;;;;;;;5044865;28;51482;-52
2022/11/10 03:03:58;;;;;;;;;20.75;14.50;;;;;;;;5044677;28;51462;-50
2022/11/10 03:06:43;;;;;;;;;17.50;16.00;;;;;;;;5052043;28;51454;-51
2022/11/10 03:09:27;;;;;;;;;20.75;16.00;;;;;;;;5057453;28;51064;-50
2022/11/10 03:12:12;;;;;;;;;20.25;18.25;;;;;;;;5051690;28;51092;-51
2022/11/10 03:14:56;;;;;;;;;16.25;15.00;;;;;;;;5051956;28;51391;-49
2022/11/10 03:17:41;;;;;;;;;17.00;16.50;;;;;;;;5050093;28;51142;-56
2022/11/10 03:20:26;;;;;;;;;24.25;20.75;;;;;;;;5040577;28;51112;-52
2022/11/10 03:23:10;;;;;;;;;20.25;18.25;;;;;;;;5052351;28;51730;-45
2022/11/10 03:25:55;;;;;;;;;24.25;21.00;;;;;;;;5048807;28;51389;-49
2022/11/10 03:28:39;;;;;;;;;22.25;17.75;;;;;;;;5042378;28;51199;-50
2022/11/10 03:31:24;;;;;;;;;21.00;19.00;;;;;;;;5050449;28;51215;-48
2022/11/10 03:34:08;;;;;;;;;28.25;22.75;;;;;;;;5056456;28;51246;-46
2022/11/10 03:36:53;;;;;;;;;29.25;20.00;;;;;;;;5056002;28;51069;-52
2022/11/10 03:39:38;;;;;;;;;19.50;19.50;;;;;;;;5060101;28;51516;-50
2022/11/10 03:42:22;;;;;;;;;26.25;22.50;;;;;;;;5043368;28;51102;-50
2022/11/10 03:45:06;;;;;;;;;20.50;19.25;;;;;;;;5048749;28;51061;-50
2022/11/10 03:47:51;;;;;;;;;24.75;19.75;;;;;;;;5056229;28;51088;-51
2022/11/10 03:50:35;;;;;;;;;21.00;20.25;;;;;;;;5044214;28;51545;-55
2022/11/10 03:53:20;;;;;;;;;28.00;22.75;;;;;;;;5041322;28;51407;-48
2022/11/10 03:56:04;;;;;;;;;26.00;22.00;;;;;;;;5040156;28;51158;-53
2022/11/10 03:58:49;;;;;;;;;26.00;22.50;;;;;;;;5055622;28;51112;-53
2022/11/10 04:01:33;;;;;;;;;17.75;13.50;;;;;;;;5044083;28;51113;-50
2022/11/10 04:10:23;;;;;;;;;25.50;21.00;;;;;;;;5053116;28;51139;-47
2022/11/10 04:16:11;;;;;;;;;26.00;23.50;;;;;;;;5041063;28;51545;-49
2022/11/10 04:18:55;;;;;;;;;29.50;23.25;;;;;;;;5046885;28;51205;-50
2022/11/10 04:21:39;;;;;;;;;25.00;22.75;;;;;;;;5039767;28;51078;-52
2022/11/10 04:24:24;;;;;;;;;23.75;23.75;;;;;;;;5044953;28;51100;-54
2022/11/10 04:27:08;;;;;;;;;26.25;26.25;;;;;;;;5050443;28;51186;-52
2022/11/10 04:29:53;;;;;;;;;32.00;28.00;;;;;;;;5054682;28;51350;-52
2022/11/10 04:32:37;;;;;;;;;26.25;24.50;;;;;;;;5056860;28;51426;-52
2022/11/10 04:35:21;;;;;;;;;28.50;25.50;;;;;;;;5041775;28;51172;-52
2022/11/10 04:38:06;;;;;;;;;30.00;27.00;;;;;;;;5055633;28;51259;-51
2022/11/10 04:40:50;;;;;;;;;29.50;26.00;;;;;;;;5043830;28;51530;-52
2022/11/10 04:43:35;;;;;;;;;29.25;26.00;;;;;;;;5043520;28;51141;-46
2022/11/10 04:46:25;;;;;;;;;37.75;32.00;;;;;;;;5047087;28;51757;-53
2022/11/10 04:49:09;;;;;;;;;35.00;30.75;;;;;;;;5054119;28;51224;-52
2022/11/10 04:51:53;;;;;;;;;29.00;26.00;;;;;;;;5039508;28;51186;-51
2022/11/10 04:54:37;;;;;;;;;33.50;30.50;;;;;;;;5046098;28;51535;-48
2022/11/10 04:57:22;;;;;;;;;34.00;27.75;;;;;;;;5048268;28;51052;-51
2022/11/10 05:00:07;;;;;;;;;37.00;30.25;;;;;;;;5046776;28;51762;-49
2022/11/10 05:02:51;;;;;;;;;34.75;31.50;;;;;;;;5041713;28;51346;-49
2022/11/10 05:05:35;;;;;;;;;37.25;31.25;;;;;;;;5048192;28;51225;-51
2022/11/10 05:08:20;;;;;;;;;46.00;34.50;;;;;;;;5050764;28;51104;-50
2022/11/10 05:11:04;;;;;;;;;50.50;35.00;;;;;;;;5056848;28;51112;-54
2022/11/10 05:13:49;;;;;;;;;47.50;36.50;;;;;;;;5039816;28;51109;-48
2022/11/10 05:16:33;;;;;;;;;45.75;35.25;;;;;;;;5042673;28;51150;-49
2022/11/10 05:19:17;;;;;;;;;47.25;36.50;;;;;;;;5038818;28;51108;-52
2022/11/10 05:22:02;;;;;;;;;47.00;38.00;;;;;;;;5041181;28;51069;-49
2022/11/10 05:24:46;;;;;;;;;44.00;36.25;;;;;;;;5044841;28;51182;-50
2022/11/10 05:27:31;;;;;;;;;45.50;37.50;;;;;;;;5038709;28;51253;-53
2022/11/10 05:30:16;;;;;;;;;49.75;39.00;;;;;;;;5044349;28;51380;-50
2022/11/10 05:33:01;;;;;;;;;48.50;38.25;;;;;;;;5046350;28;50987;-49
2022/11/10 05:35:47;;;;;;;;;50.25;40.25;;;;;;;;5038921;28;51552;-54
2022/11/10 05:38:32;;;;;;;;;52.75;42.50;;;;;;;;5042437;28;51143;-50
2022/11/10 05:41:16;;;;;;;;;49.25;38.25;;;;;;;;5042349;28;51038;-50
2022/11/10 05:44:01;;;;;;;;;51.75;41.50;;;;;;;;5046747;28;51047;-49
2022/11/10 05:46:45;;;;;;;;;51.50;41.75;;;;;;;;5044305;28;51058;-52
2022/11/10 05:49:29;;;;;;;;;51.75;41.00;;;;;;;;5048113;28;51104;-49
2022/11/10 05:52:14;;;;;;;;;52.50;41.25;;;;;;;;5043670;28;52268;-48
2022/11/10 05:54:59;;;;;;;;;52.25;42.25;;;;;;;;5037441;28;51163;-51
2022/11/10 05:57:44;;;;;;;;;51.25;41.00;;;;;;;;5050992;28;51188;-50
2022/11/10 06:00:29;;;;;;;;;53.00;42.00;;;;;;;;5041484;28;51684;-52
2022/11/10 06:03:14;;;;;;;;;50.25;39.75;;;;;;;;5045313;28;51129;-50
2022/11/10 06:05:59;;;;;;;;;53.75;42.25;;;;;;;;5044260;28;51167;-46
2022/11/10 06:08:43;;;;;;;;;51.50;39.25;;;;;;;;5053700;28;52307;-55
2022/11/10 06:11:27;;;;;;;;;52.00;40.50;;;;;;;;5045797;28;51686;-50
2022/11/10 06:14:12;;;;;;;;;49.50;38.75;;;;;;;;5047712;28;51102;-53
2022/11/10 06:16:56;;;;;;;;;54.75;41.75;;;;;;;;5043304;28;51158;-55
2022/11/10 06:19:41;;;;;;;;;52.75;42.25;;;;;;;;5039059;28;51131;-47
2022/11/10 06:22:25;;;;;;;;;54.00;42.25;;;;;;;;5042924;28;51260;-49
2022/11/10 06:25:10;;;;;;;;;47.50;39.25;;;;;;;;5044374;28;51094;-47
2022/11/10 06:27:55;;;;;;;;;51.00;41.25;;;;;;;;5044099;28;51073;-48
2022/11/10 06:30:39;;;;;;;;;53.50;41.50;;;;;;;;5044369;28;51208;-50
2022/11/10 06:33:24;;;;;;;;;52.75;40.50;;;;;;;;5042639;28;51299;-48
2022/11/10 06:36:08;;;;;;;;;48.50;38.75;;;;;;;;5038924;28;52239;-49
2022/11/10 06:38:52;;;;;;;;;50.50;40.25;;;;;;;;5038600;28;51322;-46
2022/11/10 06:41:37;;;;;;;;;51.25;39.75;;;;;;;;5035466;28;51404;-47
2022/11/10 06:44:21;;;;;;;;;51.75;39.50;;;;;;;;5048350;28;51155;-48
2022/11/10 06:47:06;;;;;;;;;41.75;34.00;;;;;;;;5045583;28;51161;-49
2022/11/10 06:49:50;;;;;;;;;44.75;35.25;;;;;;;;5048723;28;51163;-45
2022/11/10 06:52:35;;;;;;;;;46.25;36.50;;;;;;;;5048953;28;51989;-49
2022/11/10 06:55:19;;;;;;;;;48.75;39.75;;;;;;;;5047944;28;51400;-45
2022/11/10 06:58:03;;;;;;;;;48.00;38.00;;;;;;;;5044790;28;51461;-46
2022/11/10 07:00:48;;;;;;;;;47.00;35.25;;;;;;;;5048336;28;51671;-45
2022/11/10 07:03:32;;;;;;;;;43.25;33.50;;;;;;;;5043080;28;51085;-44
2022/11/10 07:06:17;;;;;;;;;48.25;36.75;;;;;;;;5041828;28;51097;-47
2022/11/10 07:09:01;;;;;;;;;40.50;34.25;;;;;;;;5042076;28;51072;-49
2022/11/10 07:11:46;;;;;;;;;43.25;34.00;;;;;;;;5052466;28;51103;-51
2022/11/10 07:14:30;;;;;;;;;39.50;34.00;;;;;;;;5046970;28;51240;-50
2022/11/10 07:17:15;;;;;;;;;44.00;35.00;;;;;;;;5041775;28;51093;-44
2022/11/10 07:19:59;;;;;;;;;43.50;35.00;;;;;;;;5042270;28;51223;-45
2022/11/10 07:22:43;;;;;;;;;46.25;35.50;;;;;;;;5055711;28;51108;-44
2022/11/10 07:25:28;;;;;;;;;43.00;34.00;;;;;;;;5044570;28;51617;-49
2022/11/10 07:28:12;;;;;;;;;42.25;33.00;;;;;;;;5043728;28;51146;-47
2022/11/10 07:30:57;;;;;;;;;37.75;29.75;;;;;;;;5052076;28;51097;-50
2022/11/10 07:33:42;;;;;;;;;42.25;34.25;;;;;;;;5060214;28;51474;-45
2022/11/10 07:36:27;;;;;;;;;41.25;33.75;;;;;;;;5046797;28;51264;-46
2022/11/10 07:39:12;;;;;;;;;46.00;35.25;;;;;;;;5044497;28;51715;-50
2022/11/10 07:41:57;;;;;;;;;35.00;31.00;;;;;;;;5030271;28;52288;-44
2022/11/10 07:44:41;;;;;;;;;34.75;29.50;;;;;;;;5042580;28;51358;-51
2022/11/10 07:47:26;;;;;;;;;37.25;30.50;;;;;;;;5049918;28;51207;-48
2022/11/10 07:50:10;;;;;;;;;34.00;27.75;;;;;;;;5042062;28;51638;-46
2022/11/10 07:53:03;;;;;;;;;34.75;28.50;;;;;;;;5047371;28;51208;-52
2022/11/10 07:55:48;;;;;;;;;27.75;25.00;;;;;;;;5044309;28;51550;-44
2022/11/10 07:58:34;;;;;;;;;30.00;25.50;;;;;;;;5043622;28;51423;-45
2022/11/10 08:01:18;;;;;;;;;29.25;23.50;;;;;;;;5050039;28;51141;-48
2022/11/10 08:04:02;;;;;;;;;28.25;26.25;;;;;;;;5053336;28;51538;-46
2022/11/10 08:06:47;;;;;;;;;24.50;21.00;;;;;;;;5054103;28;50389;-47
2022/11/10 08:09:31;;;;;;;;;28.25;22.25;;;;;;;;5040767;28;51431;-45
2022/11/10 08:12:15;;;;;;;;;26.75;24.00;;;;;;;;5050096;28;51186;-45
2022/11/10 08:15:00;;;;;;;;;22.25;18.00;;;;;;;;5042001;28;51738;-44
2022/11/10 08:17:44;;;;;;;;;21.50;18.75;;;;;;;;5051350;28;51111;-50
2022/11/10 08:20:29;;;;;;;;;21.00;20.75;;;;;;;;5050593;28;51379;-46
2022/11/10 08:23:14;;;;;;;;;20.50;20.50;;;;;;;;5043364;28;51377;-51
2022/11/10 08:25:58;;;;;;;;;27.00;22.75;;;;;;;;5038694;28;51188;-45
2022/11/10 08:28:43;;;;;;;;;21.50;18.75;;;;;;;;5048321;28;51200;-44
2022/11/10 08:31:27;;;;;;;;;22.50;20.25;;;;;;;;5040425;28;51038;-51
2022/11/10 08:34:12;;;;;;;;;23.25;22.25;;;;;;;;5039636;28;51539;-48
2022/11/10 08:36:56;;;;;;;;;23.00;20.50;;;;;;;;5050431;28;51137;-49
2022/11/10 08:39:40;;;;;;;;;21.25;18.75;;;;;;;;5042857;28;51049;-47
2022/11/10 08:42:25;;;;;;;;;19.75;19.00;;;;;;;;5042818;28;51481;-49
2022/11/10 08:45:09;;;;;;;;;20.75;17.75;;;;;;;;5044674;28;51002;-50
2022/11/10 08:47:58;;;;;;;;;20.00;17.25;;;;;;;;5040226;28;51466;-49
2022/11/10 08:50:43;;;;;;;;;18.00;15.00;;;;;;;;5041212;28;51156;-51
2022/11/10 08:53:27;;;;;;;;;19.25;13.50;;;;;;;;5050712;28;51499;-52
2022/11/10 08:56:12;;;;;;;;;16.25;13.75;;;;;;;;5038576;28;51125;-49
2022/11/10 08:58:56;;;;;;;;;15.25;13.00;;;;;;;;5046728;28;51233;-55
2022/11/10 09:01:41;;;;;;;;;17.50;15.75;;;;;;;;5046163;28;51152;-44
2022/11/10 09:04:25;;;;;;;;;17.75;16.00;;;;;;;;5055991;28;51164;-46
2022/11/10 09:07:10;;;;;;;;;16.00;14.75;;;;;;;;5045380;28;51096;-51
2022/11/10 09:09:54;;;;;;;;;16.00;13.75;;;;;;;;5038783;28;51903;-46
2022/11/10 09:12:39;;;;;;;;;17.00;15.75;;;;;;;;5046415;28;51089;-47
2022/11/10 09:15:23;;;;;;;;;13.00;12.25;;;;;;;;5038430;28;51147;-48
2022/11/10 09:18:11;;;;;;;;;15.00;14.50;;;;;;;;5043660;28;51475;-45
2022/11/10 09:20:56;;;;;;;;;15.00;13.25;;;;;;;;5038882;28;51215;-48
2022/11/10 09:23:40;;;;;;;;;16.75;15.25;;;;;;;;5049534;28;51532;-48
2022/11/10 09:26:25;;;;;;;;;17.25;14.00;;;;;;;;5044255;28;51089;-49
2022/11/10 09:29:09;;;;;;;;;16.00;13.00;;;;;;;;5041793;28;51152;-49
2022/11/10 09:31:53;;;;;;;;;18.00;15.00;;;;;;;;5045642;28;51120;-44
2022/11/10 09:34:38;;;;;;;;;17.50;14.75;;;;;;;;5039460;28;51045;-48
2022/11/10 09:37:22;;;;;;;;;13.50;12.50;;;;;;;;5040679;28;51186;-48
2022/11/10 09:40:14;;;;;;;;;16.75;15.00;;;;;;;;5042891;28;51039;-45
2022/11/10 09:42:59;;;;;;;;;14.00;13.00;;;;;;;;5039073;28;51314;-51
2022/11/10 09:45:45;;;;;;;;;16.50;12.75;;;;;;;;5056556;28;51363;-48
2022/11/10 09:48:34;;;;;;;;;18.50;13.25;;;;;;;;5054310;28;51151;-50
2022/11/10 09:51:29;;;;;;;;;15.75;12.50;;;;;;;;5056175;28;51176;-46
2022/11/10 09:54:20;;;;;;;;;15.00;15.00;;;;;;;;5053017;28;51045;-49
2022/11/10 09:57:06;;;;;;;;;14.00;12.75;;;;;;;;5055467;28;51183;-47
2022/11/10 09:59:50;;;;;;;;;18.75;15.25;;;;;;;;5059736;28;51097;-51
2022/11/10 10:02:37;;;;;;;;;16.25;14.00;;;;;;;;5052569;28;51109;-50
2022/11/10 10:05:40;;;;;;;;;19.00;16.75;;;;;;;;5028192;28;51216;-50
2022/11/10 10:08:27;;;;;;;;;17.50;15.25;;;;;;;;5046470;28;51179;-46
2022/11/10 10:11:14;;;;;;;;;20.25;16.00;;;;;;;;5057565;28;50981;-49
2022/11/10 10:13:58;;;;;;;;;19.25;14.00;;;;;;;;5043817;28;51540;-53
2022/11/10 10:16:43;;;;;;;;;20.75;15.25;;;;;;;;5047409;28;51252;-53
2022/11/10 10:19:27;;;;;;;;;9.25;8.25;;;;;;;;5044244;28;51557;-46
2022/11/10 10:22:18;;;;;;;;;18.50;17.75;;;;;;;;5043426;28;51142;-51
2022/11/10 10:25:09;;;;;;;;;17.25;14.25;;;;;;;;5061102;28;51058;-49
2022/11/10 10:28:14;;;;;;;;;12.50;12.50;;;;;;;;5048916;28;51467;-48
2022/11/10 10:31:17;;;;;;;;;13.00;12.25;;;;;;;;5038242;28;51122;-48
2022/11/10 10:34:01;;;;;;;;;14.75;10.75;;;;;;;;5044911;28;51185;-48
2022/11/10 10:36:46;;;;;;;;;14.00;11.50;;;;;;;;5046318;28;51165;-44
2022/11/10 10:39:40;;;;;;;;;12.50;12.50;;;;;;;;5033240;28;51159;-50
2022/11/10 10:42:30;;;;;;;;;17.75;13.75;;;;;;;;5026792;28;51071;-52
2022/11/10 10:45:43;;;;;;;;;12.25;10.50;;;;;;;;5053002;28;51227;-48
2022/11/10 10:48:29;;;;;;;;;12.75;11.00;;;;;;;;5028803;28;51166;-50
2022/11/10 10:51:29;;;;;;;;;14.25;12.00;;;;;;;;5045330;28;51224;-49
2022/11/10 10:54:28;;;;;;;;;13.75;11.25;;;;;;;;5046294;28;51536;-45
2022/11/10 10:57:13;;;;;;;;;19.25;14.00;;;;;;;;5040163;28;51127;-53
2022/11/10 11:00:16;;;;;;;;;9.50;8.50;;;;;;;;5043670;28;51086;-48
2022/11/10 11:03:05;;;;;;;;;16.00;15.00;;;;;;;;5042195;28;51176;-44
2022/11/10 11:06:15;;;;;;;;;14.75;10.75;;;;;;;;5051006;28;51243;-53
2022/11/10 11:09:03;;;;;;;;;9.50;8.25;;;;;;;;5030584;28;51210;-46
2022/11/10 11:11:58;;;;;;;;;14.00;12.50;;;;;;;;5049820;28;51159;-48
2022/11/10 11:14:42;;;;;;;;;11.00;9.75;;;;;;;;5041285;28;51070;-48
2022/11/10 11:17:27;;;;;;;;;14.00;12.00;;;;;;;;5059615;28;51141;-51
2022/11/10 11:20:14;;;;;;;;;13.25;10.50;;;;;;;;5061213;28;51356;-45
2022/11/10 11:23:17;;;;;;;;;16.25;12.00;;;;;;;;5058004;28;51101;-43
2022/11/10 11:26:22;;;;;;;;;13.00;11.25;;;;;;;;5060903;28;51040;-48
2022/11/10 11:29:42;;;;;;;;;12.25;10.75;;;;;;;;5062513;28;51050;-49
2022/11/10 11:32:29;;;;;;;;;14.50;13.75;;;;;;;;4979139;28;51661;-49
2022/11/10 11:35:35;;;;;;;;;16.75;14.75;;;;;;;;5060857;28;51019;-48
2022/11/10 11:38:25;;;;;;;;;21.50;13.75;;;;;;;;5056064;28;51317;-46
2022/11/10 11:41:23;;;;;;;;;15.75;12.50;;;;;;;;5049842;28;51146;-47
2022/11/10 11:44:28;;;;;;;;;13.50;11.75;;;;;;;;5042939;28;51202;-53
2022/11/10 11:47:12;;;;;;;;;13.75;10.75;;;;;;;;5046887;28;51441;-46
2022/11/10 11:50:05;;;;;;;;;17.25;12.75;;;;;;;;5060469;28;51163;-49
2022/11/10 11:53:16;;;;;;;;;17.75;16.50;;;;;;;;5046101;28;51172;-47
2022/11/10 11:56:07;;;;;;;;;18.25;15.25;;;;;;;;5041503;28;51117;-47
2022/11/10 11:58:55;;;;;;;;;13.50;12.50;;;;;;;;5061356;28;51065;-47
2022/11/10 12:01:50;;;;;;;;;15.00;15.00;;;;;;;;5059434;28;51143;-48
2022/11/10 12:04:35;;;;;;;;;13.25;9.75;;;;;;;;5060443;28;51129;-48
2022/11/10 12:07:22;;;;;;;;;21.75;14.00;;;;;;;;5060898;28;51754;-45
2022/11/10 12:10:13;;;;;;;;;13.50;11.75;;;;;;;;5060704;28;51184;-47
2022/11/10 12:13:12;;;;;;;;;16.00;12.25;;;;;;;;5060774;28;51050;-48
2022/11/10 12:16:09;;;;;;;;;15.25;10.00;;;;;;;;5061725;28;51052;-48
2022/11/10 12:19:00;;;;;;;;;14.00;13.25;;;;;;;;5049267;28;51042;-49
2022/11/10 12:21:53;;;;;;;;;14.75;10.75;;;;;;;;5044020;28;51922;-45
2022/11/10 12:24:56;;;;;;;;;12.50;12.00;;;;;;;;5040560;28;51461;-49
2022/11/10 12:27:44;;;;;;;;;19.50;16.75;;;;;;;;5007417;28;51013;-44
2022/11/10 12:30:29;;;;;;;;;22.00;18.50;;;;;;;;5019474;28;51458;-44
2022/11/10 12:33:20;;;;;;;;;11.75;10.50;;;;;;;;5019751;28;51126;-54
2022/11/10 12:36:07;;;;;;;;;11.25;10.00;;;;;;;;5020201;28;51171;-49
2022/11/10 12:39:09;;;;;;;;;16.25;14.00;;;;;;;;5018065;28;51218;-48
2022/11/10 12:41:57;;;;;;;;;16.50;13.50;;;;;;;;5018885;28;51851;-48
2022/11/10 12:44:44;;;;;;;;;13.50;11.50;;;;;;;;5017483;28;51152;-45
2022/11/10 12:47:31;;;;;;;;;15.50;12.25;;;;;;;;4998340;28;51134;-47
2022/11/10 12:50:15;;;;;;;;;12.25;12.25;;;;;;;;4999632;28;51096;-51
2022/11/10 12:53:04;;;;;;;;;15.00;13.25;;;;;;;;5000506;28;51183;-47
2022/11/10 12:55:52;;;;;;;;;16.50;13.75;;;;;;;;5015247;28;51480;-45
2022/11/10 12:58:36;;;;;;;;;16.00;10.75;;;;;;;;5017432;28;51064;-45
2022/11/10 13:01:20;;;;;;;;;12.25;9.75;;;;;;;;5019849;28;51183;-43
2022/11/10 13:04:05;;;;;;;;;13.25;11.00;;;;;;;;5008738;28;51337;-47
2022/11/10 13:06:54;;;;;;;;;10.50;10.50;;;;;;;;4999377;28;51414;-42
2022/11/10 13:09:42;;;;;;;;;14.25;12.50;;;;;;;;5004445;28;51081;-50
2022/11/10 13:12:27;;;;;;;;;13.00;10.75;;;;;;;;5000616;28;51070;-47
2022/11/10 13:15:30;;;;;;;;;15.00;11.25;;;;;;;;5007377;28;51449;-46
2022/11/10 13:18:43;;;;;;;;;17.25;11.75;;;;;;;;5007386;28;51315;-46
2022/11/10 13:22:00;;;;;;;;;15.25;13.00;;;;;;;;4999436;28;51129;-48
2022/11/10 13:24:44;;;;;;;;;13.50;9.50;;;;;;;;4990933;28;51134;-46
2022/11/10 13:27:46;;;;;;;;;13.25;12.00;;;;;;;;5051860;28;51140;-50
2022/11/10 13:30:44;;;;;;;;;13.50;12.50;;;;;;;;5044227;28;51136;-47
2022/11/10 13:33:29;;;;;;;;;15.75;12.00;;;;;;;;5043879;28;51087;-43
2022/11/10 13:36:33;;;;;;;;;15.75;11.50;;;;;;;;5035948;28;51253;-48
2022/11/10 13:39:22;;;;;;;;;17.00;12.50;;;;;;;;5039234;28;51093;-47
2022/11/10 13:42:07;;;;;;;;;15.25;13.25;;;;;;;;5049468;28;51415;-45
2022/11/10 13:44:52;;;;;;;;;16.50;12.00;;;;;;;;5054534;28;51006;-46
2022/11/10 13:47:53;;;;;;;;;12.50;11.50;;;;;;;;5057375;28;51139;-46
2022/11/10 13:50:40;;;;;;;;;14.25;13.25;;;;;;;;5058911;28;51192;-46
2022/11/10 13:53:43;;;;;;;;;12.50;9.25;;;;;;;;5053736;28;51113;-45
2022/11/10 13:56:37;;;;;;;;;12.75;10.25;;;;;;;;5056368;28;51071;-44
2022/11/10 13:59:29;;;;;;;;;14.00;13.25;;;;;;;;5043929;28;51532;-49
2022/11/10 14:02:32;;;;;;;;;13.75;13.75;;;;;;;;5039302;28;51075;-45
2022/11/10 14:05:29;;;;;;;;;18.50;11.75;;;;;;;;5059218;28;51172;-50
2022/11/10 14:08:17;;;;;;;;;14.00;12.75;;;;;;;;5058590;28;51065;-54
2022/11/10 14:11:10;;;;;;;;;15.00;13.00;;;;;;;;5057000;28;50982;-53
2022/11/10 14:14:01;;;;;;;;;14.50;11.75;;;;;;;;5058927;28;51163;-48
2022/11/10 14:16:46;;;;;;;;;19.00;13.00;;;;;;;;5058858;28;51064;-50
2022/11/10 14:19:37;;;;;;;;;13.50;12.00;;;;;;;;5059441;28;51186;-46
2022/11/10 14:22:54;;;;;;;;;11.75;11.00;;;;;;;;5038721;28;51408;-49
2022/11/10 14:25:41;;;;;;;;;12.00;10.75;;;;;;;;5018728;28;51279;-52
2022/11/10 14:28:29;;;;;;;;;15.25;11.75;;;;;;;;5039309;28;51031;-48
2022/11/10 14:31:20;;;;;;;;;14.75;11.75;;;;;;;;5045697;28;51171;-54
2022/11/10 14:34:04;;;;;;;;;19.75;14.75;;;;;;;;5057792;28;51417;-52
2022/11/10 14:36:53;;;;;;;;;10.50;10.50;;;;;;;;5055692;28;51062;-49
2022/11/10 14:39:37;;;;;;;;;16.00;12.50;;;;;;;;5052575;28;51373;-53
2022/11/10 14:42:23;;;;;;;;;14.50;12.50;;;;;;;;5058790;28;51266;-49
2022/11/10 14:45:18;;;;;;;;;15.50;13.25;;;;;;;;5059102;28;51122;-48
2022/11/10 14:48:13;;;;;;;;;12.00;11.75;;;;;;;;5051388;28;51110;-44
2022/11/10 14:51:02;;;;;;;;;12.00;12.00;;;;;;;;5028982;28;51799;-47
2022/11/10 14:53:51;;;;;;;;;14.25;14.00;;;;;;;;5058094;28;51038;-50
2022/11/10 14:56:36;;;;;;;;;16.25;13.50;;;;;;;;5043600;28;51170;-47
2022/11/10 14:59:20;;;;;;;;;13.25;12.75;;;;;;;;5058850;28;51298;-49
2022/11/10 15:02:12;;;;;;;;;21.25;15.25;;;;;;;;5042419;28;51083;-50
2022/11/10 15:04:56;;;;;;;;;14.75;14.25;;;;;;;;5046327;28;51144;-45
2022/11/10 15:07:42;;;;;;;;;16.75;13.25;;;;;;;;5048102;28;51141;-46
2022/11/10 15:10:38;;;;;;;;;13.75;12.00;;;;;;;;5041291;28;51248;-48
2022/11/10 15:13:32;;;;;;;;;21.25;13.25;;;;;;;;5042686;28;51355;-50
2022/11/10 15:16:29;;;;;;;;;13.75;11.25;;;;;;;;5058800;28;51489;-50
2022/11/10 15:19:23;;;;;;;;;58.50;45.75;;;;;;;;5047471;28;51064;-49
2022/11/10 15:22:17;;;;;;;;;40.00;32.25;;;;;;;;5041737;28;51030;-49
2022/11/10 15:25:21;;;;;;;;;28.50;25.75;;;;;;;;5057312;28;51613;-46
2022/11/10 15:28:11;;;;;;;;;33.75;25.25;;;;;;;;5044485;28;51031;-46
2022/11/10 15:30:57;;;;;;;;;26.00;18.75;;;;;;;;5041267;28;51364;-47
2022/11/10 15:33:46;;;;;;;;;21.75;18.00;;;;;;;;5040834;28;51482;-46
2022/11/10 15:36:32;;;;;;;;;18.50;14.00;;;;;;;;5035536;28;51304;-49
2022/11/10 15:39:22;;;;;;;;;18.25;14.75;;;;;;;;5055878;28;51145;-45
2022/11/10 15:42:20;;;;;;;;;18.75;14.25;;;;;;;;5060226;28;51096;-50
2022/11/10 15:45:04;;;;;;;;;25.50;17.75;;;;;;;;5045458;28;51323;-46
2022/11/10 15:47:48;;;;;;;;;17.50;14.25;;;;;;;;5047933;28;51493;-51
2022/11/10 15:50:33;;;;;;;;;17.75;15.25;;;;;;;;5039958;28;51324;-50
2022/11/10 15:53:20;;;;;;;;;16.00;12.25;;;;;;;;5047233;28;51140;-44
2022/11/10 15:56:08;;;;;;;;;19.00;17.50;;;;;;;;5060895;28;51592;-44
2022/11/10 15:58:56;;;;;;;;;18.00;17.00;;;;;;;;5058460;28;51184;-45
2022/11/10 16:01:41;;;;;;;;;21.75;20.25;;;;;;;;5047428;28;51460;-45
2022/11/10 16:04:26;;;;;;;;;22.75;17.25;;;;;;;;5049629;28;51155;-46
2022/11/10 16:07:10;;;;;;;;;23.50;19.75;;;;;;;;5037471;28;51079;-46
2022/11/10 16:09:54;;;;;;;;;23.00;18.25;;;;;;;;5055542;28;51065;-45
2022/11/10 16:12:39;;;;;;;;;21.00;15.50;;;;;;;;5060344;28;51446;-47
2022/11/10 16:15:24;;;;;;;;;17.25;16.50;;;;;;;;5059365;28;51544;-45
2022/11/10 16:18:18;;;;;;;;;22.75;18.00;;;;;;;;5060419;28;51227;-50
2022/11/10 16:21:03;;;;;;;;;17.00;16.50;;;;;;;;5060962;28;51129;-49
2022/11/10 16:23:47;;;;;;;;;15.25;15.00;;;;;;;;5059687;28;51137;-46
2022/11/10 16:26:32;;;;;;;;;20.75;13.50;;;;;;;;5060244;28;51207;-46
2022/11/10 16:29:16;;;;;;;;;16.00;14.25;;;;;;;;5060238;28;51146;-47